createdAt,value
2023-10-23T00:02:19.651Z,16.75
2023-10-23T00:04:48.415Z,16.72
2023-10-23T00:07:17.316Z,16.73
2023-10-23T00:09:45.610Z,16.78
2023-10-23T00:12:13.955Z,16.87
2023-10-23T00:14:42.244Z,16.92
2023-10-23T00:17:10.662Z,16.99
2023-10-23T00:19:38.783Z,17.05
2023-10-23T00:22:07.009Z,17.10
2023-10-23T00:24:35.380Z,17.14
2023-10-23T00:27:03.742Z,17.19
2023-10-23T00:29:31.961Z,17.23
2023-10-23T00:32:00.181Z,17.24
2023-10-23T00:34:28.406Z,17.23
2023-10-23T00:36:56.565Z,17.24
2023-10-23T00:39:25.457Z,17.28
2023-10-23T00:41:53.665Z,17.32
2023-10-23T00:44:21.889Z,17.37
2023-10-23T00:46:50.429Z,17.37
2023-10-23T00:49:19.028Z,17.33
2023-10-23T00:51:47.992Z,17.27
2023-10-23T00:54:16.889Z,17.20
2023-10-23T00:56:45.830Z,17.13
2023-10-23T00:59:14.918Z,17.05
2023-10-23T01:01:45.167Z,16.97
2023-10-23T01:04:13.574Z,16.87
2023-10-23T01:06:41.930Z,16.80
2023-10-23T01:09:10.828Z,16.72
2023-10-23T01:11:39.061Z,16.66
2023-10-23T01:14:07.287Z,16.62
2023-10-23T01:16:35.544Z,16.61
2023-10-23T01:19:04.420Z,16.58
2023-10-23T01:21:32.697Z,16.54
2023-10-23T01:24:01.465Z,16.51
2023-10-23T01:26:29.678Z,16.48
2023-10-23T01:28:58.001Z,16.48
2023-10-23T01:31:26.572Z,16.41
2023-10-23T01:33:56.191Z,16.32
2023-10-23T01:36:24.487Z,16.23
2023-10-23T01:38:52.690Z,16.18
2023-10-23T01:41:21.010Z,16.14
2023-10-23T01:43:49.223Z,16.06
2023-10-23T01:46:17.484Z,16.02
2023-10-23T01:48:45.905Z,16.01
2023-10-23T01:51:14.035Z,16.01
2023-10-23T01:53:42.406Z,16.01
2023-10-23T01:56:10.771Z,16.00
2023-10-23T01:58:38.943Z,15.95
2023-10-23T02:01:07.365Z,15.91
2023-10-23T02:03:35.815Z,15.88
2023-10-23T02:06:04.008Z,15.87
2023-10-23T02:08:32.229Z,15.85
2023-10-23T02:11:01.454Z,15.84
2023-10-23T02:13:29.979Z,15.86
2023-10-23T02:15:58.116Z,15.86
2023-10-23T02:18:26.428Z,15.88
2023-10-23T02:20:54.731Z,15.92
2023-10-23T02:23:23.049Z,15.97
2023-10-23T02:25:51.272Z,16.01
2023-10-23T02:28:19.623Z,16.04
2023-10-23T02:30:49.213Z,16.04
2023-10-23T02:33:17.397Z,15.98
2023-10-23T02:35:46.662Z,15.88
2023-10-23T02:38:14.984Z,15.77
2023-10-23T02:40:52.181Z,15.71
2023-10-23T02:43:21.461Z,15.67
2023-10-23T02:45:49.797Z,15.61
2023-10-23T02:48:20.845Z,15.56
2023-10-23T02:50:59.577Z,15.56
2023-10-23T02:53:27.896Z,15.57
2023-10-23T02:55:56.367Z,15.58
2023-10-23T02:58:24.463Z,15.59
2023-10-23T03:00:52.720Z,15.62
2023-10-23T03:03:21.167Z,15.60
2023-10-23T03:05:49.703Z,15.55
2023-10-23T03:08:18.122Z,15.50
2023-10-23T03:10:46.243Z,15.46
2023-10-23T03:13:14.362Z,15.41
2023-10-23T03:15:42.713Z,15.37
2023-10-23T03:18:11.952Z,15.34
2023-10-23T03:20:41.627Z,15.30
2023-10-23T03:23:09.849Z,15.28
2023-10-23T03:25:38.070Z,15.28
2023-10-23T03:28:06.289Z,15.30
2023-10-23T03:30:34.839Z,15.33
2023-10-23T03:33:03.170Z,15.34
2023-10-23T03:35:31.460Z,15.35
2023-10-23T03:37:59.671Z,15.33
2023-10-23T03:40:27.892Z,15.29
2023-10-23T03:42:56.156Z,15.24
2023-10-23T03:45:24.453Z,15.18
2023-10-23T03:47:52.756Z,15.12
2023-10-23T03:50:21.168Z,15.08
2023-10-23T03:52:49.401Z,15.04
2023-10-23T03:55:17.708Z,15.01
2023-10-23T03:57:48.935Z,14.98
2023-10-23T04:00:17.664Z,14.98
2023-10-23T04:02:45.940Z,15.06
2023-10-23T04:05:14.984Z,15.19
2023-10-23T04:07:43.237Z,15.30
2023-10-23T04:10:15.253Z,15.35
2023-10-23T04:12:43.709Z,15.36
2023-10-23T04:15:12.108Z,15.35
2023-10-23T04:17:40.329Z,15.31
2023-10-23T04:20:09.091Z,15.28
2023-10-23T04:22:37.268Z,15.26
2023-10-23T04:25:05.948Z,15.25
2023-10-23T04:27:34.269Z,15.26
2023-10-23T04:30:06.424Z,15.26
2023-10-23T04:32:34.774Z,15.25
2023-10-23T04:35:03.496Z,15.22
2023-10-23T04:37:31.720Z,15.26
2023-10-23T04:40:00.439Z,15.35
2023-10-23T04:42:28.804Z,15.49
2023-10-23T04:44:57.190Z,15.62
2023-10-23T04:47:25.476Z,15.73
2023-10-23T04:49:53.733Z,15.80
2023-10-23T04:52:22.357Z,15.86
2023-10-23T04:54:53.396Z,15.86
2023-10-23T04:57:21.790Z,15.84
2023-10-23T04:59:50.133Z,15.83
2023-10-23T05:02:18.442Z,15.82
2023-10-23T05:04:46.798Z,15.81
2023-10-23T05:07:16.392Z,15.79
2023-10-23T05:09:44.648Z,15.79
2023-10-23T05:12:13.043Z,15.80
2023-10-23T05:14:41.261Z,15.80
2023-10-23T05:17:09.480Z,15.82
2023-10-23T05:19:37.745Z,15.83
2023-10-23T05:22:06.015Z,15.85
2023-10-23T05:24:34.156Z,15.89
2023-10-23T05:27:02.457Z,15.98
2023-10-23T05:29:30.677Z,16.08
2023-10-23T05:32:00.595Z,16.19
2023-10-23T05:34:28.817Z,16.28
2023-10-23T05:36:57.047Z,16.38
2023-10-23T05:39:25.303Z,16.47
2023-10-23T05:41:53.470Z,16.56
2023-10-23T05:44:22.018Z,16.66
2023-10-23T05:46:50.127Z,16.77
2023-10-23T05:49:18.334Z,16.86
2023-10-23T05:51:46.821Z,16.95
2023-10-23T05:54:18.295Z,17.05
2023-10-23T05:56:46.707Z,17.15
2023-10-23T05:59:14.937Z,17.26
2023-10-23T06:01:43.186Z,17.37
2023-10-23T06:04:11.599Z,17.48
2023-10-23T06:06:40.194Z,17.61
2023-10-23T06:09:09.512Z,17.73
2023-10-23T06:11:37.946Z,17.85
2023-10-23T06:14:06.549Z,17.94
2023-10-23T06:16:34.709Z,18.04
2023-10-23T06:19:03.904Z,18.14
2023-10-23T06:21:32.942Z,18.22
2023-10-23T06:24:02.345Z,18.31
2023-10-23T06:26:30.613Z,18.42
2023-10-23T06:28:59.181Z,18.50
2023-10-23T06:31:27.454Z,18.58
2023-10-23T06:33:55.973Z,18.66
2023-10-23T06:36:24.237Z,18.75
2023-10-23T06:38:52.759Z,18.84
2023-10-23T06:41:20.880Z,18.94
2023-10-23T06:43:49.202Z,19.02
2023-10-23T06:46:17.355Z,19.08
2023-10-23T06:48:46.025Z,19.17
2023-10-23T06:51:17.493Z,19.28
2023-10-23T06:53:45.748Z,19.42
2023-10-23T06:56:14.417Z,19.54
2023-10-23T06:58:43.942Z,19.67
2023-10-23T07:01:12.561Z,19.80
2023-10-23T07:03:41.245Z,19.92
2023-10-23T07:06:10.185Z,20.04
2023-10-23T07:08:40.633Z,20.15
2023-10-23T07:11:17.807Z,20.23
2023-10-23T07:13:46.130Z,20.34
2023-10-23T07:16:14.312Z,20.47
2023-10-23T07:18:42.719Z,20.61
2023-10-23T07:21:11.502Z,20.71
2023-10-23T07:23:40.432Z,20.81
2023-10-23T07:26:17.962Z,20.95
2023-10-23T07:28:46.780Z,21.13
2023-10-23T07:31:15.755Z,21.30
2023-10-23T07:33:44.752Z,21.46
2023-10-23T07:36:14.680Z,21.60
2023-10-23T07:38:44.064Z,21.73
2023-10-23T07:41:13.817Z,21.85
2023-10-23T07:43:43.984Z,22.00
2023-10-23T07:46:17.418Z,22.13
2023-10-23T07:48:47.395Z,22.25
2023-10-23T07:51:16.209Z,22.36
2023-10-23T07:53:44.843Z,22.47
2023-10-23T07:56:14.496Z,22.58
2023-10-23T07:58:43.095Z,22.67
2023-10-23T08:01:15.304Z,22.76
2023-10-23T08:03:43.828Z,22.86
2023-10-23T08:06:12.742Z,22.96
2023-10-23T08:08:42.245Z,23.03
2023-10-23T08:11:12.671Z,23.08
2023-10-23T08:13:41.652Z,23.13
2023-10-23T08:16:10.023Z,23.20
2023-10-23T08:18:41.333Z,23.27
2023-10-23T08:21:15.641Z,23.33
2023-10-23T08:23:46.252Z,23.43
2023-10-23T08:26:14.612Z,23.55
2023-10-23T08:31:29.472Z,23.79
2023-10-23T08:34:02.644Z,23.94
2023-10-23T08:36:31.141Z,24.12
2023-10-23T08:38:59.457Z,24.29
2023-10-23T08:41:27.911Z,24.43
2023-10-23T08:43:57.443Z,24.57
2023-10-23T08:46:27.862Z,24.68
2023-10-23T08:48:56.363Z,24.78
2023-10-23T08:51:25.389Z,24.89
2023-10-23T08:54:10.934Z,25.01
2023-10-23T08:56:42.751Z,25.10
2023-10-23T08:59:14.468Z,25.11
2023-10-23T09:01:43.271Z,25.15
2023-10-23T09:04:13.140Z,25.20
2023-10-23T09:06:44.076Z,25.24
2023-10-23T09:09:13.052Z,25.24
2023-10-23T09:11:50.669Z,25.22
2023-10-23T09:14:29.738Z,25.20
2023-10-23T09:16:59.421Z,25.20
2023-10-23T09:19:38.501Z,25.20
2023-10-23T09:22:08.791Z,25.28
2023-10-23T09:24:38.786Z,25.38
2023-10-23T09:27:07.209Z,25.47
2023-10-23T09:29:37.154Z,25.54
2023-10-23T09:32:07.001Z,25.59
2023-10-23T09:34:43.293Z,25.63
2023-10-23T09:37:11.734Z,25.67
2023-10-23T09:39:41.732Z,25.67
2023-10-23T09:42:10.462Z,25.63
2023-10-23T09:44:40.333Z,25.58
2023-10-23T09:47:12.719Z,25.54
2023-10-23T09:49:42.107Z,25.51
2023-10-23T09:52:11.994Z,25.54
2023-10-23T09:54:44.751Z,25.63
2023-10-23T09:57:17.018Z,25.73
2023-10-23T09:59:54.979Z,25.84
2023-10-23T10:02:30.856Z,25.92
2023-10-23T10:05:06.592Z,26.02
2023-10-23T10:07:59.101Z,26.14
2023-10-23T10:10:27.770Z,26.24
2023-10-23T10:12:57.766Z,26.32
2023-10-23T10:15:27.064Z,26.39
2023-10-23T10:17:55.354Z,26.50
2023-10-23T10:20:25.088Z,26.61
2023-10-23T10:23:05.278Z,26.71
2023-10-23T10:25:35.617Z,26.77
2023-10-23T10:28:05.850Z,26.83
2023-10-23T10:30:52.814Z,26.91
2023-10-23T10:34:18.386Z,26.98
2023-10-23T10:36:13.654Z,27.06
2023-10-23T10:38:42.566Z,27.10
2023-10-23T10:41:19.274Z,27.09
2023-10-23T10:43:54.805Z,27.11
2023-10-23T10:46:27.368Z,27.16
2023-10-23T10:48:57.377Z,27.23
2023-10-23T10:51:27.473Z,27.38
2023-10-23T10:54:00.070Z,27.53
2023-10-23T10:56:28.813Z,27.57
2023-10-23T10:59:01.203Z,27.58
2023-10-23T11:01:29.837Z,27.62
2023-10-23T11:03:58.577Z,27.72
2023-10-23T11:06:27.113Z,27.86
2023-10-23T11:08:56.398Z,28.06
2023-10-23T11:11:27.565Z,28.29
2023-10-23T11:13:56.143Z,28.49
2023-10-23T11:16:24.780Z,28.67
2023-10-23T11:18:53.159Z,28.79
2023-10-23T11:21:24.716Z,28.87
2023-10-23T11:23:57.550Z,28.95
2023-10-23T11:26:27.597Z,28.99
2023-10-23T11:28:55.946Z,29.08
2023-10-23T11:31:24.276Z,29.22
2023-10-23T11:33:53.718Z,29.43
2023-10-23T11:36:23.014Z,29.64
2023-10-23T11:38:52.038Z,29.75
2023-10-23T11:41:22.566Z,29.83
2023-10-23T11:43:59.523Z,29.84
2023-10-23T11:46:28.448Z,29.85
2023-10-23T11:48:56.760Z,29.92
2023-10-23T11:51:25.683Z,30.05
2023-10-23T11:53:54.834Z,30.22
2023-10-23T11:56:23.026Z,30.54
2023-10-23T11:58:51.550Z,30.91
2023-10-23T12:01:19.869Z,31.31
2023-10-23T12:03:48.244Z,31.74
2023-10-23T12:06:16.611Z,32.19
2023-10-23T12:08:44.830Z,32.52
2023-10-23T12:11:13.353Z,32.78
2023-10-23T12:13:41.776Z,33.01
2023-10-23T12:16:11.438Z,33.02
2023-10-23T12:18:39.823Z,33.03
2023-10-23T12:21:08.153Z,32.96
2023-10-23T12:23:36.359Z,32.85
2023-10-23T12:26:04.773Z,32.69
2023-10-23T12:28:33.463Z,32.50
2023-10-23T12:31:01.711Z,32.20
2023-10-23T12:33:50.757Z,32.08
2023-10-23T12:36:19.539Z,31.90
2023-10-23T12:38:47.876Z,31.61
2023-10-23T12:41:16.221Z,31.53
2023-10-23T12:43:44.677Z,31.44
2023-10-23T12:46:13.131Z,31.29
2023-10-23T12:48:45.145Z,31.20
2023-10-23T12:51:13.588Z,31.15
2023-10-23T12:53:41.799Z,31.15
2023-10-23T12:56:10.122Z,31.07
2023-10-23T12:58:38.444Z,30.97
2023-10-23T13:01:06.712Z,30.75
2023-10-23T13:03:35.009Z,30.30
2023-10-23T13:06:05.008Z,30.00
2023-10-23T13:08:33.235Z,29.58
2023-10-23T13:11:02.052Z,29.18
2023-10-23T13:13:30.601Z,28.91
2023-10-23T13:15:58.963Z,28.64
2023-10-23T13:18:27.418Z,28.36
2023-10-23T13:21:33.114Z,28.11
2023-10-23T13:23:44.831Z,27.97
2023-10-23T13:26:14.455Z,27.87
2023-10-23T13:28:43.177Z,27.76
2023-10-23T13:31:12.528Z,27.68
2023-10-23T13:33:40.922Z,27.61
2023-10-23T13:36:09.995Z,27.57
2023-10-23T13:38:38.972Z,27.52
2023-10-23T13:41:07.488Z,27.46
2023-10-23T13:43:35.816Z,27.41
2023-10-23T13:46:05.712Z,27.33
2023-10-23T13:48:34.562Z,27.18
2023-10-23T13:51:03.041Z,27.02
2023-10-23T13:53:32.820Z,26.89
2023-10-23T13:56:01.033Z,26.70
2023-10-23T13:58:29.267Z,26.57
2023-10-23T14:00:58.775Z,26.46
2023-10-23T14:03:29.203Z,26.38
2023-10-23T14:05:59.227Z,26.32
2023-10-23T14:09:42.418Z,26.25
2023-10-23T14:12:00.374Z,26.14
2023-10-23T14:14:04.342Z,25.99
2023-10-23T14:16:32.620Z,25.88
2023-10-23T14:19:00.994Z,25.77
2023-10-23T14:21:29.710Z,25.65
2023-10-23T14:23:57.916Z,25.50
2023-10-23T14:26:26.945Z,25.34
2023-10-23T14:28:55.767Z,25.17
2023-10-23T14:31:24.049Z,25.00
2023-10-23T14:33:52.437Z,24.87
2023-10-23T14:36:20.645Z,24.73
2023-10-23T14:38:48.749Z,24.59
2023-10-23T14:41:17.067Z,24.41
2023-10-23T14:43:45.288Z,24.26
2023-10-23T14:46:15.396Z,24.10
2023-10-23T14:48:44.039Z,23.91
2023-10-23T14:51:12.260Z,23.73
2023-10-23T14:53:40.786Z,23.56
2023-10-23T14:56:10.717Z,23.40
2023-10-23T14:58:39.180Z,23.26
2023-10-23T15:01:09.450Z,23.15
2023-10-23T15:03:42.858Z,23.05
2023-10-23T15:06:13.081Z,22.92
2023-10-23T15:08:43.803Z,22.78
2023-10-23T15:11:16.053Z,22.67
2023-10-23T15:13:44.321Z,22.57
2023-10-23T15:16:12.572Z,22.41
2023-10-23T15:18:40.846Z,22.26
2023-10-23T15:21:09.532Z,22.13
2023-10-23T15:23:37.787Z,22.01
2023-10-23T15:26:06.228Z,21.86
2023-10-23T15:28:36.795Z,21.74
2023-10-23T15:31:07.196Z,21.62
2023-10-23T15:33:37.221Z,21.50
2023-10-23T15:36:07.279Z,21.39
2023-10-23T15:38:36.836Z,21.32
2023-10-23T15:41:10.466Z,21.26
2023-10-23T15:43:40.622Z,21.17
2023-10-23T15:46:16.989Z,21.11
2023-10-23T15:48:46.016Z,21.08
2023-10-23T15:51:15.875Z,21.03
2023-10-23T15:53:44.142Z,20.99
2023-10-23T15:56:12.376Z,20.96
2023-10-23T15:58:40.680Z,20.92
2023-10-23T16:01:10.613Z,20.88
2023-10-23T16:03:38.966Z,20.81
2023-10-23T16:06:11.188Z,20.74
2023-10-23T16:08:39.948Z,20.69
2023-10-23T16:11:09.212Z,20.66
2023-10-23T16:13:38.557Z,20.64
2023-10-23T16:16:15.313Z,20.60
2023-10-23T16:18:47.393Z,20.55
2023-10-23T16:21:16.830Z,20.51
2023-10-23T16:23:45.377Z,20.46
2023-10-23T16:26:13.697Z,20.42
2023-10-23T16:28:42.006Z,20.39
2023-10-23T16:31:14.207Z,20.37
2023-10-23T16:33:43.594Z,20.33
2023-10-23T16:36:12.688Z,20.30
2023-10-23T16:38:40.922Z,20.28
2023-10-23T16:41:09.238Z,20.25
2023-10-23T16:43:41.771Z,20.23
2023-10-23T16:46:12.904Z,20.21
2023-10-23T16:48:42.810Z,20.19
2023-10-23T16:51:11.451Z,20.17
2023-10-23T16:53:39.972Z,20.16
2023-10-23T16:56:08.489Z,20.13
2023-10-23T16:58:36.794Z,20.10
2023-10-23T17:01:09.715Z,20.07
2023-10-23T17:03:41.719Z,20.06
2023-10-23T17:06:10.780Z,20.05
2023-10-23T17:08:39.120Z,20.05
2023-10-23T17:11:08.990Z,20.05
2023-10-23T17:13:38.223Z,20.03
2023-10-23T17:16:07.689Z,20.00
2023-10-23T17:18:36.020Z,19.98
2023-10-23T17:21:04.645Z,19.97
2023-10-23T17:23:35.152Z,19.94
2023-10-23T17:26:03.497Z,19.93
2023-10-23T17:28:32.153Z,19.96
2023-10-23T17:31:00.843Z,19.98
2023-10-23T17:33:32.033Z,20.01
2023-10-23T17:36:00.999Z,20.04
2023-10-23T17:38:29.307Z,20.05
2023-10-23T17:40:57.825Z,20.06
2023-10-23T17:43:26.259Z,20.07
2023-10-23T17:45:55.367Z,20.08
2023-10-23T17:48:23.693Z,20.09
2023-10-23T17:50:53.211Z,20.09
2023-10-23T17:53:21.331Z,20.07
2023-10-23T17:55:49.568Z,20.05
2023-10-23T17:58:17.915Z,20.03
2023-10-23T18:00:46.242Z,20.02
2023-10-23T18:03:15.407Z,20.01
2023-10-23T18:05:43.845Z,19.98
2023-10-23T18:08:12.056Z,19.96
2023-10-23T18:10:40.323Z,19.93
2023-10-23T18:13:09.743Z,19.89
2023-10-23T18:15:38.020Z,19.86
2023-10-23T18:18:06.268Z,19.85
2023-10-23T18:20:34.455Z,19.85
2023-10-23T18:23:02.678Z,19.83
2023-10-23T18:25:31.734Z,19.85
2023-10-23T18:27:59.967Z,19.89
2023-10-23T18:30:28.341Z,19.93
2023-10-23T18:32:56.513Z,19.95
2023-10-23T18:35:24.752Z,19.97
2023-10-23T18:37:54.090Z,19.99
2023-10-23T18:40:22.410Z,20.02
2023-10-23T18:42:55.743Z,20.04
2023-10-23T18:45:24.185Z,20.06
2023-10-23T18:47:52.680Z,20.07
2023-10-23T18:50:21.328Z,20.07
2023-10-23T18:52:49.748Z,20.04
2023-10-23T18:55:17.875Z,20.03
2023-10-23T18:57:46.085Z,20.00
2023-10-23T19:00:16.750Z,19.98
2023-10-23T19:02:45.588Z,19.96
2023-10-23T19:05:13.963Z,19.94
2023-10-23T19:07:42.222Z,19.92
2023-10-23T19:10:11.049Z,19.90
2023-10-23T19:12:39.425Z,19.84
2023-10-23T19:15:08.044Z,19.83
2023-10-23T19:17:40.989Z,19.82
2023-10-23T19:20:10.828Z,19.82
2023-10-23T19:22:39.803Z,19.82
2023-10-23T19:25:08.991Z,19.85
2023-10-23T19:27:37.474Z,19.88
2023-10-23T19:30:06.813Z,19.91
2023-10-23T19:32:35.636Z,19.93
2023-10-23T19:35:04.325Z,19.95
2023-10-23T19:37:33.328Z,19.96
2023-10-23T19:40:03.014Z,19.97
2023-10-23T19:42:38.550Z,19.98
2023-10-23T19:45:09.063Z,20.00
2023-10-23T19:47:37.913Z,20.01
2023-10-23T19:50:07.135Z,20.02
2023-10-23T19:52:37.625Z,20.03
2023-10-23T19:55:44.760Z,20.03
2023-10-23T19:57:55.575Z,20.03
2023-10-23T20:00:24.108Z,20.03
2023-10-23T20:02:52.472Z,20.01
2023-10-23T20:05:20.917Z,19.98
2023-10-23T20:07:49.275Z,19.96
2023-10-23T20:10:17.990Z,19.94
2023-10-23T20:12:46.216Z,19.92
2023-10-23T20:15:14.648Z,19.88
2023-10-23T20:17:42.903Z,19.84
2023-10-23T20:20:11.388Z,19.79
2023-10-23T20:22:39.653Z,19.75
2023-10-23T20:25:08.050Z,19.71
2023-10-23T20:27:36.449Z,19.66
2023-10-23T20:30:06.536Z,19.61
2023-10-23T20:32:35.711Z,19.57
2023-10-23T20:35:05.679Z,19.56
2023-10-23T20:37:35.218Z,19.58
2023-10-23T20:40:05.147Z,19.59
2023-10-23T20:42:37.572Z,19.61
2023-10-23T20:45:07.283Z,19.64
2023-10-23T20:47:36.007Z,19.66
2023-10-23T20:50:04.765Z,19.65
2023-10-23T20:52:33.791Z,19.62
2023-10-23T20:55:02.435Z,19.60
2023-10-23T20:57:31.718Z,19.56
2023-10-23T21:00:00.162Z,19.53
2023-10-23T21:02:29.354Z,19.52
2023-10-23T21:04:57.680Z,19.49
2023-10-23T21:07:26.174Z,19.44
2023-10-23T21:25:22.496Z,19.38
2023-10-23T21:27:51.923Z,19.35
2023-10-23T21:30:20.559Z,19.30
2023-10-23T21:32:48.796Z,19.29
2023-10-23T21:35:16.983Z,19.28
2023-10-23T21:37:45.567Z,19.27
2023-10-23T21:40:14.032Z,19.25
2023-10-23T21:42:42.451Z,19.21
2023-10-23T21:45:10.669Z,19.17
2023-10-23T21:47:38.989Z,19.14
2023-10-23T21:50:08.010Z,19.09
2023-10-23T21:52:36.661Z,19.05
2023-10-23T21:55:13.994Z,19.03
2023-10-23T21:57:47.803Z,19.02
2023-10-23T22:00:29.117Z,19.03
2023-10-23T22:02:58.774Z,19.04
2023-10-23T22:05:27.824Z,19.08
2023-10-23T22:07:57.136Z,19.10
2023-10-23T22:10:26.835Z,19.11
2023-10-23T22:12:57.344Z,19.12
2023-10-23T22:15:25.634Z,19.10
2023-10-23T22:17:54.426Z,19.06
2023-10-23T22:20:22.968Z,19.03
2023-10-23T22:22:50.984Z,18.99
2023-10-23T22:25:19.635Z,18.94
2023-10-23T22:27:48.131Z,18.90
2023-10-23T22:30:16.676Z,18.84
2023-10-23T22:32:47.809Z,18.79
2023-10-23T22:35:20.328Z,18.74
2023-10-23T22:38:06.967Z,18.74
2023-10-23T22:40:37.472Z,18.77
2023-10-23T22:43:05.814Z,18.79
2023-10-23T22:45:36.898Z,18.81
2023-10-23T22:48:13.879Z,18.78
2023-10-23T22:50:42.526Z,18.80
2023-10-23T22:53:11.189Z,18.80
2023-10-23T22:55:40.601Z,18.77
2023-10-23T22:58:13.078Z,18.75
2023-10-23T23:00:41.875Z,18.74
2023-10-23T23:03:10.746Z,18.74
2023-10-23T23:05:40.861Z,18.73
2023-10-23T23:08:12.408Z,18.74
2023-10-23T23:10:41.023Z,18.76
2023-10-23T23:13:09.960Z,18.78
2023-10-23T23:15:40.295Z,18.78
2023-10-23T23:18:09.446Z,18.77
2023-10-23T23:20:42.594Z,18.77
2023-10-23T23:23:10.921Z,18.77
2023-10-23T23:25:39.090Z,18.77
2023-10-23T23:28:07.421Z,18.77
2023-10-23T23:30:35.577Z,18.74
2023-10-23T23:33:03.939Z,18.70
2023-10-23T23:35:32.425Z,18.65
2023-10-23T23:38:00.524Z,18.61
2023-10-23T23:40:28.756Z,18.58
2023-10-23T23:42:56.864Z,18.53
2023-10-23T23:45:25.185Z,18.45
2023-10-23T23:47:53.250Z,18.34
2023-10-23T23:50:21.522Z,18.24
2023-10-23T23:52:49.842Z,18.17
2023-10-23T23:55:17.929Z,18.14
2023-10-23T23:57:46.881Z,18.12
